createdAt,value
2022-11-27T00:01:36.065Z,95197.00
2022-11-27T00:04:04.601Z,95192.00
2022-11-27T00:06:32.384Z,95189.00
2022-11-27T00:09:01.795Z,95191.00
2022-11-27T00:11:30.557Z,95186.00
2022-11-27T00:14:00.202Z,95180.00
2022-11-27T00:16:28.338Z,95181.00
2022-11-27T00:18:55.435Z,95175.00
2022-11-27T00:21:29.611Z,95175.00
2022-11-27T00:23:59.475Z,95174.00
2022-11-27T00:26:30.875Z,95179.00
2022-11-27T00:29:01.714Z,95186.00
2022-11-27T00:31:34.072Z,95181.00
2022-11-27T00:34:04.037Z,95167.00
2022-11-27T00:36:33.463Z,95155.00
2022-11-27T00:39:03.852Z,95153.00
2022-11-27T00:41:31.740Z,95145.00
2022-11-27T00:44:01.375Z,95148.00
2022-11-27T00:46:31.489Z,95144.00
2022-11-27T00:49:06.440Z,95143.00
2022-11-27T00:51:33.821Z,95135.00
2022-11-27T00:54:03.150Z,95126.00
2022-11-27T00:56:38.569Z,95125.00
2022-11-27T00:59:07.107Z,95129.00
2022-11-27T01:01:41.171Z,95128.00
2022-11-27T01:04:13.239Z,95127.00
2022-11-27T01:06:40.643Z,95122.00
2022-11-27T01:09:10.632Z,95124.00
2022-11-27T01:11:40.079Z,95124.00
2022-11-27T01:14:14.527Z,95127.00
2022-11-27T01:16:44.045Z,95115.00
2022-11-27T01:19:13.226Z,95117.00
2022-11-27T01:21:41.052Z,95111.00
2022-11-27T01:24:08.827Z,95109.00
2022-11-27T01:26:38.178Z,95105.00
2022-11-27T01:29:08.134Z,95098.00
2022-11-27T01:31:37.695Z,95107.00
2022-11-27T01:34:08.995Z,95082.00
2022-11-27T01:36:36.136Z,95090.00
2022-11-27T01:39:04.043Z,95089.00
2022-11-27T01:41:36.457Z,95075.00
2022-11-27T01:44:26.030Z,95096.00
2022-11-27T01:47:02.150Z,95084.00
2022-11-27T01:49:49.320Z,95092.00
2022-11-27T01:52:32.520Z,95077.00
2022-11-27T01:55:04.525Z,95074.00
2022-11-27T01:57:41.544Z,95072.00
2022-11-27T02:00:14.829Z,95078.00
2022-11-27T02:02:46.993Z,95074.00
2022-11-27T02:05:24.253Z,95067.00
2022-11-27T02:07:55.409Z,95063.00
2022-11-27T02:10:34.362Z,95063.00
2022-11-27T02:13:38.293Z,95063.00
2022-11-27T02:16:37.109Z,95059.00
2022-11-27T02:19:39.643Z,95050.00
2022-11-27T02:23:09.463Z,95052.00
2022-11-27T02:26:02.146Z,95054.00
2022-11-27T02:28:31.982Z,95060.00
2022-11-27T02:31:17.008Z,95052.00
2022-11-27T02:33:47.193Z,95048.00
2022-11-27T02:36:22.857Z,95049.00
2022-11-27T02:39:01.882Z,95048.00
2022-11-27T02:41:51.544Z,95043.00
2022-11-27T02:44:22.273Z,95051.00
2022-11-27T02:46:50.223Z,95054.00
2022-11-27T02:49:20.241Z,95057.00
2022-11-27T02:51:56.162Z,95049.00
2022-11-27T02:54:29.488Z,95048.00
2022-11-27T02:57:05.087Z,95047.00
2022-11-27T02:59:33.810Z,95045.00
2022-11-27T03:02:10.093Z,95048.00
2022-11-27T03:04:48.146Z,95032.00
2022-11-27T03:07:59.354Z,95037.00
2022-11-27T03:11:06.112Z,95039.00
2022-11-27T03:13:42.272Z,95036.00
2022-11-27T03:16:35.691Z,95030.00
2022-11-27T03:19:17.333Z,95014.00
2022-11-27T03:21:55.790Z,95022.00
2022-11-27T03:24:23.297Z,95023.00
2022-11-27T03:26:52.143Z,95017.00
2022-11-27T03:29:31.388Z,95018.00
2022-11-27T03:31:58.405Z,95017.00
2022-11-27T03:34:26.261Z,95010.00
2022-11-27T03:36:53.064Z,95017.00
2022-11-27T03:39:21.604Z,95013.00
2022-11-27T03:42:15.886Z,95015.00
2022-11-27T03:44:53.499Z,95012.00
2022-11-27T03:47:29.197Z,95017.00
2022-11-27T03:50:18.077Z,95010.00
2022-11-27T03:53:06.047Z,95004.00
2022-11-27T03:55:35.632Z,95005.00
2022-11-27T03:58:09.742Z,95000.00
2022-11-27T04:00:43.677Z,95005.00
2022-11-27T04:03:15.668Z,94996.00
2022-11-27T04:05:42.578Z,95004.00
2022-11-27T04:08:11.943Z,94999.00
2022-11-27T04:10:41.354Z,95007.00
2022-11-27T04:13:08.263Z,94998.00
2022-11-27T04:15:37.415Z,94999.00
2022-11-27T04:18:04.527Z,95004.00
2022-11-27T04:20:34.202Z,94992.00
2022-11-27T04:23:03.747Z,94994.00
2022-11-27T04:25:30.761Z,94985.00
2022-11-27T04:27:57.696Z,94984.00
2022-11-27T04:30:27.051Z,94972.00
2022-11-27T04:32:53.901Z,94974.00
2022-11-27T04:35:20.792Z,94979.00
2022-11-27T04:37:47.601Z,94967.00
2022-11-27T04:40:14.718Z,94967.00
2022-11-27T04:42:44.106Z,94967.00
2022-11-27T04:45:11.503Z,94961.00
2022-11-27T04:47:41.369Z,94966.00
2022-11-27T04:50:11.291Z,94967.00
2022-11-27T04:52:38.096Z,94967.00
2022-11-27T04:55:06.021Z,94964.00
2022-11-27T04:57:35.382Z,94965.00
2022-11-27T05:00:05.253Z,94956.00
2022-11-27T05:02:32.265Z,94962.00
2022-11-27T05:05:01.299Z,94965.00
2022-11-27T05:07:30.704Z,94973.00
2022-11-27T05:09:59.888Z,94979.00
2022-11-27T05:12:26.770Z,94979.00
2022-11-27T05:14:55.800Z,94980.00
2022-11-27T05:17:22.868Z,94973.00
2022-11-27T05:19:49.709Z,94982.00
2022-11-27T05:22:16.526Z,94977.00
2022-11-27T05:24:46.435Z,94985.00
2022-11-27T05:27:13.309Z,94981.00
2022-11-27T05:29:40.324Z,94975.00
2022-11-27T05:32:07.180Z,94979.00
2022-11-27T05:34:36.249Z,94980.00
2022-11-27T05:37:03.094Z,94982.00
2022-11-27T05:39:32.510Z,94977.00
2022-11-27T05:41:59.341Z,94966.00
2022-11-27T05:44:29.461Z,94971.00
2022-11-27T05:46:57.288Z,94962.00
2022-11-27T05:49:24.305Z,94956.00
2022-11-27T05:51:51.880Z,94965.00
2022-11-27T05:54:23.980Z,94960.00
2022-11-27T05:56:50.811Z,94962.00
2022-11-27T05:59:20.668Z,94953.00
2022-11-27T06:01:50.606Z,94958.00
2022-11-27T06:04:20.137Z,94967.00
2022-11-27T06:06:49.280Z,94967.00
2022-11-27T06:09:16.293Z,94953.00
2022-11-27T06:11:47.668Z,94974.00
2022-11-27T06:14:14.500Z,94978.00
2022-11-27T06:16:43.875Z,94977.00
2022-11-27T06:19:10.821Z,94969.00
2022-11-27T06:21:37.797Z,94968.00
2022-11-27T06:24:09.890Z,94973.00
2022-11-27T06:26:36.837Z,94976.00
2022-11-27T06:29:08.766Z,94977.00
2022-11-27T06:31:36.125Z,94972.00
2022-11-27T06:34:12.833Z,94973.00
2022-11-27T06:36:46.403Z,94981.00
2022-11-27T06:39:16.365Z,94986.00
2022-11-27T06:41:43.518Z,94985.00
2022-11-27T06:44:10.972Z,94939.00
2022-11-27T06:46:38.054Z,94973.00
2022-11-27T06:49:05.147Z,94986.00
2022-11-27T06:51:35.253Z,94978.00
2022-11-27T06:54:02.830Z,94968.00
2022-11-27T06:56:32.877Z,94967.00
2022-11-27T06:59:03.501Z,94960.00
2022-11-27T07:01:31.892Z,94945.00
2022-11-27T07:03:59.294Z,94940.00
2022-11-27T07:06:29.643Z,94942.00
2022-11-27T07:08:59.020Z,94949.00
2022-11-27T07:11:29.751Z,94938.00
2022-11-27T07:14:00.706Z,94934.00
2022-11-27T07:16:30.970Z,94946.00
2022-11-27T07:19:06.944Z,94936.00
2022-11-27T07:21:37.464Z,94931.00
2022-11-27T07:24:06.837Z,94935.00
2022-11-27T07:26:33.843Z,94929.00
2022-11-27T07:29:00.777Z,94922.00
2022-11-27T07:31:30.948Z,94933.00
2022-11-27T07:33:58.492Z,94935.00
2022-11-27T07:36:32.926Z,94932.00
2022-11-27T07:38:59.840Z,94939.00
2022-11-27T07:41:32.100Z,94923.00
2022-11-27T07:44:01.004Z,94915.00
2022-11-27T07:46:30.644Z,94913.00
2022-11-27T07:48:58.209Z,94902.00
2022-11-27T07:51:25.053Z,94911.00
2022-11-27T07:53:54.147Z,94913.00
2022-11-27T07:56:21.654Z,94923.00
2022-11-27T07:58:51.461Z,94930.00
2022-11-27T08:01:19.871Z,94923.00
2022-11-27T08:03:47.426Z,94906.00
2022-11-27T08:06:27.741Z,94908.00
2022-11-27T08:08:58.051Z,94889.00
2022-11-27T08:11:29.810Z,94881.00
2022-11-27T08:14:02.859Z,94888.00
2022-11-27T08:16:33.922Z,94882.00
2022-11-27T08:19:01.103Z,94897.00
2022-11-27T08:21:29.423Z,94897.00
2022-11-27T08:23:57.659Z,94909.00
2022-11-27T08:26:27.517Z,94920.00
2022-11-27T08:28:58.110Z,94924.00
2022-11-27T08:31:25.569Z,94926.00
2022-11-27T08:33:54.791Z,94914.00
2022-11-27T08:36:26.494Z,94924.00
2022-11-27T08:38:54.307Z,94916.00
2022-11-27T08:41:24.138Z,94909.00
2022-11-27T08:43:51.348Z,94901.00
2022-11-27T08:46:18.358Z,94894.00
2022-11-27T08:48:45.235Z,94896.00
2022-11-27T08:51:15.474Z,94909.00
2022-11-27T08:53:45.732Z,94918.00
2022-11-27T08:56:23.350Z,94905.00
2022-11-27T08:58:50.567Z,94911.00
2022-11-27T09:01:26.007Z,94912.00
2022-11-27T09:03:53.424Z,94897.00
2022-11-27T09:06:28.164Z,94895.00
2022-11-27T09:09:00.134Z,94895.00
2022-11-27T09:11:33.426Z,94897.00
2022-11-27T09:14:08.753Z,94871.00
2022-11-27T09:16:36.252Z,94880.00
2022-11-27T09:19:03.462Z,94884.00
2022-11-27T09:21:33.387Z,94882.00
2022-11-27T09:24:03.191Z,94889.00
2022-11-27T09:26:30.646Z,94882.00
2022-11-27T09:28:59.410Z,94890.00
2022-11-27T09:31:26.705Z,94883.00
2022-11-27T09:33:55.837Z,94876.00
2022-11-27T09:36:25.667Z,94874.00
2022-11-27T09:38:53.622Z,94876.00
2022-11-27T09:41:39.834Z,94872.00
2022-11-27T09:44:23.000Z,94866.00
2022-11-27T09:46:51.848Z,94848.00
2022-11-27T09:49:33.756Z,94855.00
2022-11-27T09:52:17.873Z,94856.00
2022-11-27T09:55:01.030Z,94855.00
2022-11-27T09:57:39.592Z,94839.00
2022-11-27T10:00:19.380Z,94841.00
2022-11-27T10:02:48.063Z,94831.00
2022-11-27T10:05:24.915Z,94833.00
2022-11-27T10:08:07.886Z,94822.00
2022-11-27T10:10:53.168Z,94815.00
2022-11-27T10:14:07.774Z,94819.00
2022-11-27T10:16:45.030Z,94805.00
2022-11-27T10:20:02.410Z,94814.00
2022-11-27T10:22:57.298Z,94812.00
2022-11-27T10:25:53.247Z,94801.00
2022-11-27T10:28:42.043Z,94799.00
2022-11-27T10:31:49.710Z,94799.00
2022-11-27T10:34:34.903Z,94810.00
2022-11-27T10:37:08.303Z,94802.00
2022-11-27T10:39:45.319Z,94794.00
2022-11-27T10:42:55.531Z,94791.00
2022-11-27T10:45:57.811Z,94783.00
2022-11-27T10:48:28.522Z,94785.00
2022-11-27T10:50:56.266Z,94783.00
2022-11-27T10:53:28.931Z,94782.00
2022-11-27T10:56:31.387Z,94784.00
2022-11-27T10:59:12.002Z,94781.00
2022-11-27T11:01:54.767Z,94775.00
2022-11-27T11:04:43.265Z,94767.00
2022-11-27T11:07:27.583Z,94762.00
2022-11-27T11:09:56.479Z,94763.00
2022-11-27T11:12:24.544Z,94761.00
2022-11-27T11:14:56.704Z,94747.00
2022-11-27T11:17:40.741Z,94751.00
2022-11-27T11:20:34.116Z,94737.00
2022-11-27T11:23:00.997Z,94745.00
2022-11-27T11:25:30.336Z,94738.00
2022-11-27T11:27:57.459Z,94749.00
2022-11-27T11:30:29.266Z,94741.00
2022-11-27T11:33:04.290Z,94737.00
2022-11-27T11:35:36.353Z,94731.00
2022-11-27T11:38:16.843Z,94716.00
2022-11-27T11:41:07.546Z,94703.00
2022-11-27T11:43:37.978Z,94704.00
2022-11-27T11:46:28.624Z,94704.00
2022-11-27T11:49:23.789Z,94699.00
2022-11-27T11:52:22.285Z,94683.00
2022-11-27T11:55:11.744Z,94690.00
2022-11-27T11:57:54.140Z,94683.00
2022-11-27T12:00:30.258Z,94677.00
2022-11-27T12:03:17.743Z,94677.00
2022-11-27T12:06:17.342Z,94676.00
2022-11-27T12:09:18.072Z,94673.00
2022-11-27T12:11:53.795Z,94672.00
2022-11-27T12:14:52.706Z,94671.00
2022-11-27T12:18:07.111Z,94667.00
2022-11-27T12:21:28.477Z,94673.00
2022-11-27T12:24:19.436Z,94657.00
2022-11-27T12:27:05.585Z,94658.00
2022-11-27T12:29:53.035Z,94648.00
2022-11-27T12:32:37.044Z,94653.00
2022-11-27T12:35:19.486Z,94650.00
2022-11-27T12:37:58.521Z,94646.00
2022-11-27T12:40:53.439Z,94643.00
2022-11-27T12:43:30.280Z,94644.00
2022-11-27T12:46:17.063Z,94643.00
2022-11-27T12:48:54.009Z,94635.00
2022-11-27T12:51:32.169Z,94639.00
2022-11-27T12:54:19.486Z,94640.00
2022-11-27T12:57:13.962Z,94598.00
2022-11-27T12:59:42.443Z,94623.00
2022-11-27T13:02:24.582Z,94621.00
2022-11-27T13:05:15.474Z,94621.00
2022-11-27T13:08:40.052Z,94618.00
2022-11-27T13:11:17.824Z,94616.00
2022-11-27T13:13:50.203Z,94596.00
2022-11-27T13:16:38.471Z,94586.00
2022-11-27T13:19:33.386Z,94586.00
2022-11-27T13:22:03.831Z,94586.00
2022-11-27T13:24:31.109Z,94591.00
2022-11-27T13:27:19.479Z,94580.00
2022-11-27T13:29:57.842Z,94578.00
2022-11-27T13:32:32.840Z,94566.00
2022-11-27T13:35:06.988Z,94568.00
2022-11-27T13:37:45.032Z,94578.00
2022-11-27T13:40:30.873Z,94569.00
2022-11-27T13:43:19.287Z,94573.00
2022-11-27T13:45:46.503Z,94568.00
2022-11-27T13:48:33.285Z,94560.00
2022-11-27T13:51:00.797Z,94557.00
2022-11-27T13:53:43.631Z,94550.00
2022-11-27T13:56:10.611Z,94549.00
2022-11-27T13:58:43.156Z,94537.00
2022-11-27T14:01:24.768Z,94541.00
2022-11-27T14:03:54.904Z,94543.00
2022-11-27T14:06:30.583Z,94534.00
2022-11-27T14:09:01.632Z,94534.00
2022-11-27T14:11:43.618Z,94520.00
2022-11-27T14:14:22.996Z,94519.00
2022-11-27T14:17:04.937Z,94520.00
2022-11-27T14:19:42.324Z,94511.00
2022-11-27T14:23:10.039Z,94511.00
2022-11-27T14:25:37.345Z,94509.00
2022-11-27T14:28:19.652Z,94515.00
2022-11-27T14:30:56.904Z,94510.00
2022-11-27T14:34:13.650Z,94511.00
2022-11-27T14:36:35.481Z,94505.00
2022-11-27T14:39:03.644Z,94502.00
2022-11-27T14:41:31.432Z,94500.00
2022-11-27T14:44:14.811Z,94489.00
2022-11-27T14:46:42.191Z,94492.00
2022-11-27T14:49:19.431Z,94487.00
2022-11-27T14:51:46.802Z,94486.00
2022-11-27T14:54:36.535Z,94493.00
2022-11-27T14:57:05.632Z,94492.00
2022-11-27T14:59:36.063Z,94483.00
2022-11-27T15:02:18.684Z,94474.00
2022-11-27T15:04:49.008Z,94479.00
2022-11-27T15:07:25.374Z,94472.00
2022-11-27T15:10:00.225Z,94476.00
2022-11-27T15:12:34.048Z,94470.00
2022-11-27T15:15:07.667Z,94476.00
2022-11-27T15:17:40.855Z,94479.00
2022-11-27T15:20:34.709Z,94478.00
2022-11-27T15:23:02.091Z,94475.00
2022-11-27T15:25:43.743Z,94465.00
2022-11-27T15:28:28.384Z,94463.00
2022-11-27T15:30:57.126Z,94455.00
2022-11-27T15:33:33.146Z,94460.00
2022-11-27T15:36:18.885Z,94456.00
2022-11-27T15:38:46.878Z,94446.00
2022-11-27T15:41:27.808Z,94458.00
2022-11-27T15:43:56.297Z,94443.00
2022-11-27T15:46:31.978Z,94443.00
2022-11-27T15:49:05.142Z,94440.00
2022-11-27T15:51:32.258Z,94440.00
2022-11-27T15:53:59.339Z,94438.00
2022-11-27T15:56:26.219Z,94439.00
2022-11-27T15:58:55.184Z,94425.00
2022-11-27T16:01:26.715Z,94437.00
2022-11-27T16:03:54.166Z,94440.00
2022-11-27T16:06:24.746Z,94429.00
2022-11-27T16:09:00.405Z,94439.00
2022-11-27T16:11:30.231Z,94422.00
2022-11-27T16:13:59.881Z,94426.00
2022-11-27T16:16:27.412Z,94421.00
2022-11-27T16:18:59.911Z,94416.00
2022-11-27T16:21:30.453Z,94406.00
2022-11-27T16:24:07.176Z,94408.00
2022-11-27T16:26:36.892Z,94405.00
2022-11-27T16:29:10.012Z,94397.00
2022-11-27T16:31:37.361Z,94398.00
2022-11-27T16:34:07.169Z,94399.00
2022-11-27T16:36:37.150Z,94399.00
2022-11-27T16:39:08.926Z,94393.00
2022-11-27T16:41:36.314Z,94393.00
2022-11-27T16:44:13.549Z,94391.00
2022-11-27T16:46:41.438Z,94388.00
2022-11-27T16:49:12.888Z,94385.00
2022-11-27T16:51:41.005Z,94386.00
2022-11-27T16:54:11.807Z,94370.00
2022-11-27T16:56:38.735Z,94383.00
2022-11-27T16:59:11.306Z,94376.00
2022-11-27T17:01:42.378Z,94379.00
2022-11-27T17:04:16.257Z,94372.00
2022-11-27T17:06:45.748Z,94360.00
2022-11-27T17:09:13.103Z,94359.00
2022-11-27T17:11:48.473Z,94353.00
2022-11-27T17:14:16.316Z,94352.00
2022-11-27T17:16:43.509Z,94335.00
2022-11-27T17:19:15.656Z,94335.00
2022-11-27T17:21:45.065Z,94330.00
2022-11-27T17:24:17.820Z,94331.00
2022-11-27T17:26:48.964Z,94328.00
2022-11-27T17:29:19.249Z,94321.00
2022-11-27T17:31:48.523Z,94329.00
2022-11-27T17:34:17.070Z,94315.00
2022-11-27T17:36:46.735Z,94314.00
2022-11-27T17:39:14.871Z,94306.00
2022-11-27T17:41:46.375Z,94305.00
2022-11-27T17:44:13.928Z,94305.00
2022-11-27T17:46:41.180Z,94305.00
2022-11-27T17:49:08.523Z,94313.00
2022-11-27T17:51:36.593Z,94301.00
2022-11-27T17:54:05.581Z,94303.00
2022-11-27T17:56:35.300Z,94307.00
2022-11-27T17:59:02.765Z,94300.00
2022-11-27T18:01:31.189Z,94307.00
2022-11-27T18:04:01.112Z,94308.00
2022-11-27T18:06:28.466Z,94310.00
2022-11-27T18:08:58.165Z,94296.00
2022-11-27T18:11:29.558Z,94301.00
2022-11-27T18:13:56.790Z,94306.00
2022-11-27T18:16:30.641Z,94304.00
2022-11-27T18:18:59.042Z,94297.00
2022-11-27T18:21:28.542Z,94285.00
2022-11-27T18:29:34.638Z,94270.00
2022-11-27T18:32:01.645Z,94270.00
2022-11-27T18:34:28.743Z,94265.00
2022-11-27T18:36:57.474Z,94258.00
2022-11-27T18:39:27.082Z,94260.00
2022-11-27T18:41:56.543Z,94262.00
2022-11-27T18:44:23.530Z,94263.00
2022-11-27T18:46:52.813Z,94263.00
2022-11-27T18:49:22.891Z,94266.00
2022-11-27T18:51:51.776Z,94258.00
2022-11-27T18:54:19.162Z,94258.00
2022-11-27T18:56:46.542Z,94236.00
2022-11-27T18:59:13.651Z,94244.00
2022-11-27T19:01:42.708Z,94248.00
2022-11-27T19:04:11.689Z,94245.00
2022-11-27T19:06:42.944Z,94241.00
2022-11-27T19:09:18.054Z,94238.00
2022-11-27T19:11:44.969Z,94232.00
2022-11-27T19:14:14.950Z,94235.00
2022-11-27T19:16:47.133Z,94212.00
2022-11-27T19:22:10.271Z,94212.00
2022-11-27T19:24:37.582Z,94208.00
2022-11-27T19:27:09.058Z,94208.00
2022-11-27T19:29:36.320Z,94204.00
2022-11-27T19:32:05.917Z,94204.00
2022-11-27T19:34:35.097Z,94203.00
2022-11-27T19:37:02.188Z,94206.00
2022-11-27T19:39:31.627Z,94200.00
2022-11-27T19:41:58.617Z,94199.00
2022-11-27T19:44:26.033Z,94188.00
2022-11-27T19:46:55.490Z,94185.00
2022-11-27T19:49:22.682Z,94191.00
2022-11-27T19:51:50.864Z,94188.00
2022-11-27T19:54:19.354Z,94194.00
2022-11-27T19:56:46.585Z,94186.00
2022-11-27T19:59:24.237Z,94179.00
2022-11-27T20:01:57.669Z,94180.00
2022-11-27T20:04:24.759Z,94167.00
2022-11-27T20:06:53.518Z,94178.00
2022-11-27T20:09:20.682Z,94165.00
2022-11-27T20:11:50.103Z,94171.00
2022-11-27T20:14:20.227Z,94167.00
2022-11-27T20:16:50.218Z,94166.00
2022-11-27T20:19:17.242Z,94159.00
2022-11-27T20:21:44.515Z,94162.00
2022-11-27T20:24:11.813Z,94160.00
2022-11-27T20:26:42.855Z,94157.00
2022-11-27T20:29:14.166Z,94156.00
2022-11-27T20:31:44.590Z,94162.00
2022-11-27T20:34:19.728Z,94143.00
2022-11-27T20:36:47.329Z,94149.00
2022-11-27T20:39:20.525Z,94147.00
2022-11-27T20:41:51.036Z,94149.00
2022-11-27T20:44:18.486Z,94135.00
2022-11-27T20:46:50.456Z,94142.00
2022-11-27T20:49:20.803Z,94131.00
2022-11-27T20:51:52.098Z,94129.00
2022-11-27T20:54:19.245Z,94123.00
2022-11-27T20:56:47.533Z,94126.00
2022-11-27T20:59:17.131Z,94112.00
2022-11-27T21:01:44.162Z,94108.00
2022-11-27T21:04:21.881Z,94090.00
2022-11-27T21:06:49.017Z,94103.00
2022-11-27T21:09:19.222Z,94082.00
2022-11-27T21:11:47.683Z,94096.00
2022-11-27T21:14:18.677Z,94092.00
2022-11-27T21:16:51.553Z,94093.00
2022-11-27T21:19:25.363Z,94097.00
2022-11-27T21:21:57.246Z,94095.00
2022-11-27T21:24:29.869Z,94088.00
2022-11-27T21:26:57.050Z,94087.00
2022-11-27T21:29:25.817Z,94089.00
2022-11-27T21:31:53.938Z,94091.00
2022-11-27T21:34:21.195Z,94096.00
2022-11-27T21:36:50.586Z,94093.00
2022-11-27T21:39:20.517Z,94096.00
2022-11-27T21:41:52.258Z,94097.00
2022-11-27T21:44:21.816Z,94104.00
2022-11-27T21:46:49.848Z,94105.00
2022-11-27T21:49:21.243Z,94094.00
2022-11-27T21:51:53.389Z,94099.00
2022-11-27T21:54:20.975Z,94096.00
2022-11-27T21:56:55.842Z,94089.00
2022-11-27T21:59:24.863Z,94074.00
2022-11-27T22:01:52.113Z,94091.00
2022-11-27T22:04:19.407Z,94078.00
2022-11-27T22:06:48.665Z,94078.00
2022-11-27T22:09:18.126Z,94084.00
2022-11-27T22:11:49.309Z,94078.00
2022-11-27T22:14:16.784Z,94062.00
2022-11-27T22:16:47.198Z,94048.00
2022-11-27T22:19:15.120Z,94048.00
2022-11-27T22:21:42.083Z,94053.00
2022-11-27T22:24:18.256Z,94053.00
2022-11-27T22:26:48.578Z,94048.00
2022-11-27T22:29:15.856Z,94044.00
2022-11-27T22:31:42.960Z,94035.00
2022-11-27T22:34:12.007Z,94031.00
2022-11-27T22:36:41.435Z,94034.00
2022-11-27T22:39:09.154Z,94033.00
2022-11-27T22:41:39.598Z,94032.00
2022-11-27T22:44:18.512Z,94020.00
2022-11-27T22:46:46.127Z,94014.00
2022-11-27T22:49:17.085Z,94006.00
2022-11-27T22:51:45.179Z,94006.00
2022-11-27T22:54:15.181Z,93992.00
2022-11-27T22:56:45.827Z,94002.00
2022-11-27T23:02:00.131Z,93997.00
2022-11-27T23:04:27.149Z,94002.00
2022-11-27T23:06:58.626Z,93999.00
2022-11-27T23:09:27.663Z,93987.00
2022-11-27T23:11:56.418Z,93994.00
2022-11-27T23:14:24.806Z,93999.00
2022-11-27T23:16:51.853Z,93994.00
2022-11-27T23:19:21.537Z,93999.00
2022-11-27T23:21:48.466Z,93997.00
2022-11-27T23:24:16.077Z,93992.00
2022-11-27T23:26:43.980Z,93993.00
2022-11-27T23:29:13.875Z,93981.00
2022-11-27T23:31:40.936Z,93981.00
2022-11-27T23:34:16.169Z,93979.00
2022-11-27T23:36:47.780Z,93973.00
2022-11-27T23:39:19.426Z,93972.00
2022-11-27T23:41:49.546Z,93966.00
2022-11-27T23:44:21.900Z,93971.00
2022-11-27T23:46:51.787Z,93961.00
2022-11-27T23:49:21.725Z,93951.00
2022-11-27T23:51:51.093Z,93955.00
2022-11-27T23:54:18.010Z,93961.00
2022-11-27T23:56:50.281Z,93962.00
2022-11-27T23:59:17.136Z,93974.00
